Time;durP1;ratioP1;P1;durP2;ratioP2;P2;SDS_P1;SDS_P2;PMS_P1;PMS_P2;Temp;Humidity;BMP_temperature;BMP_pressure;BME280_temperature;BME280_humidity;BME280_pressure;Samples;Min_cycle;Max_cycle;Signal;HPM_P1;HPM_P2
2022/05/13 00:01:39;;;;;;;;;;;;;;;;;;6182838;23;20306;-68
2022/05/13 00:04:06;;;;;;;;;;;;;;;;;;6156910;23;19914;-68
2022/05/13 00:06:31;;;;;;;;;;;;;;;;;;6183438;23;19900;-68
2022/05/13 00:08:57;;;;;;;;;;;;;;;;;;6182578;23;19947;-68
2022/05/13 00:11:23;;;;;;;;;;;;;;;;;;6182480;23;19904;-68
2022/05/13 00:13:49;;;;;;;;;;;;;;;;;;6181871;23;20933;-68
2022/05/13 00:16:15;;;;;;;;;;;;;;;;;;6182987;23;19983;-68
2022/05/13 00:18:41;;;;;;;;;;;;;;;;;;6182651;23;19906;-68
2022/05/13 00:21:07;;;;;;;;;;;;;;;;;;6183689;23;19907;-68
2022/05/13 00:23:33;;;;;;;;;;;;;;;;;;6184252;23;20325;-70
2022/05/13 00:25:59;;;;;;;;;;;;;;;;;;6183523;23;19901;-69
2022/05/13 00:28:25;;;;;;;;;;;;;;;;;;6182483;23;19908;-68
2022/05/13 00:30:51;;;;;;;;;;;;;;;;;;6183503;23;20222;-68
2022/05/13 00:33:17;;;;;;;;;;;;;;;;;;6184132;23;19984;-68
2022/05/13 00:35:43;;;;;;;;;;;;;;;;;;6156695;23;19924;-68
2022/05/13 00:38:08;;;;;;;;;;;;;;;;;;6181744;23;19907;-68
2022/05/13 00:40:35;;;;;;;;;;;;;;;;;;6182432;23;19903;-69
2022/05/13 00:43:01;;;;;;;;;;;;;;;;;;6182400;23;19961;-69
2022/05/13 00:45:27;;;;;;;;;;;;;;;;;;6156284;23;19900;-69
2022/05/13 00:47:53;;;;;;;;;;;;;;;;;;6183129;23;19983;-68
2022/05/13 00:50:19;;;;;;;;;;;;;;;;;;6183097;23;20242;-68
2022/05/13 00:52:45;;;;;;;;;;;;;;;;;;6184155;23;19907;-68
2022/05/13 00:55:11;;;;;;;;;;;;;;;;;;6158265;23;19995;-68
2022/05/13 00:57:37;;;;;;;;;;;;;;;;;;6185074;23;19900;-68
2022/05/13 01:00:04;;;;;;;;;;;;;;;;;;6181349;23;19994;-68
2022/05/13 01:02:32;;;;;;;;;;;;;;;;;;6158839;23;19953;-68
2022/05/13 01:05:05;;;;;;;;;;;;;;;;;;6159977;23;19904;-68
2022/05/13 01:07:40;;;;;;;;;;;;;;;;;;6186414;23;19901;-68
2022/05/13 01:10:06;;;;;;;;;;;;;;;;;;6185471;23;19900;-68
2022/05/13 01:12:32;;;;;;;;;;;;;;;;;;6184059;23;20322;-69
2022/05/13 01:14:58;;;;;;;;;;;;;;;;;;6157039;23;20011;-63
2022/05/13 01:20:08;;;;;;;;;;;;;;;;;;6181911;23;19907;-65
2022/05/13 01:22:35;;;;;;;;;;;;;;;;;;6182449;23;19900;-65
2022/05/13 01:25:01;;;;;;;;;;;;;;;;;;6182526;23;19900;-65
2022/05/13 01:27:27;;;;;;;;;;;;;;;;;;6154903;23;19900;-65
2022/05/13 01:29:53;;;;;;;;;;;;;;;;;;6181690;23;19935;-66
2022/05/13 01:32:19;;;;;;;;;;;;;;;;;;6181310;23;19983;-65
2022/05/13 01:34:45;;;;;;;;;;;;;;;;;;6155842;23;19912;-65
2022/05/13 01:37:11;;;;;;;;;;;;;;;;;;6182185;23;20322;-65
2022/05/13 01:39:37;;;;;;;;;;;;;;;;;;6155465;23;19959;-65
2022/05/13 01:42:03;;;;;;;;;;;;;;;;;;6155285;23;19900;-65
2022/05/13 01:44:28;;;;;;;;;;;;;;;;;;6182646;23;19995;-65
2022/05/13 01:46:54;;;;;;;;;;;;;;;;;;6181133;23;19958;-65
2022/05/13 01:49:20;;;;;;;;;;;;;;;;;;6155432;23;20105;-65
2022/05/13 01:51:46;;;;;;;;;;;;;;;;;;6181842;23;19904;-65
2022/05/13 01:54:12;;;;;;;;;;;;;;;;;;6155559;23;19951;-65
2022/05/13 01:56:38;;;;;;;;;;;;;;;;;;6156045;23;19907;-65
2022/05/13 01:59:04;;;;;;;;;;;;;;;;;;6181497;23;20341;-65
2022/05/13 02:01:30;;;;;;;;;;;;;;;;;;6180907;23;19928;-65
2022/05/13 02:03:56;;;;;;;;;;;;;;;;;;6155390;23;20385;-65
2022/05/13 02:06:22;;;;;;;;;;;;;;;;;;6156202;23;19904;-65
2022/05/13 02:08:48;;;;;;;;;;;;;;;;;;6181432;23;19907;-65
2022/05/13 02:11:14;;;;;;;;;;;;;;;;;;6182376;23;19900;-65
2022/05/13 02:13:40;;;;;;;;;;;;;;;;;;6184105;23;19900;-65
2022/05/13 02:16:06;;;;;;;;;;;;;;;;;;6182818;23;19908;-65
2022/05/13 02:18:32;;;;;;;;;;;;;;;;;;6181886;23;19986;-65
2022/05/13 02:20:58;;;;;;;;;;;;;;;;;;6177080;23;19904;-65
2022/05/13 02:23:24;;;;;;;;;;;;;;;;;;6181073;23;19914;-65
2022/05/13 02:25:50;;;;;;;;;;;;;;;;;;6182009;23;19946;-65
2022/05/13 02:28:15;;;;;;;;;;;;;;;;;;6155734;23;20307;-65
2022/05/13 02:33:35;;;;;;;;;;;;;;;;;;6186382;23;19934;-65
2022/05/13 02:36:07;;;;;;;;;;;;;;;;;;6186135;23;19944;-65
2022/05/13 02:38:32;;;;;;;;;;;;;;;;;;6182522;23;19939;-65
2022/05/13 02:41:14;;;;;;;;;;;;;;;;;;6181521;23;19901;-65
2022/05/13 02:43:40;;;;;;;;;;;;;;;;;;6181652;23;19983;-65
2022/05/13 02:46:06;;;;;;;;;;;;;;;;;;6181190;23;19939;-65
2022/05/13 02:48:34;;;;;;;;;;;;;;;;;;6155198;23;20361;-65
2022/05/13 02:51:00;;;;;;;;;;;;;;;;;;6155336;23;20263;-65
2022/05/13 02:53:26;;;;;;;;;;;;;;;;;;6181617;23;20338;-65
2022/05/13 02:55:52;;;;;;;;;;;;;;;;;;6181700;23;19915;-65
2022/05/13 02:58:18;;;;;;;;;;;;;;;;;;6181927;23;19904;-65
2022/05/13 03:00:44;;;;;;;;;;;;;;;;;;6155620;23;19900;-65
2022/05/13 03:03:10;;;;;;;;;;;;;;;;;;6181862;23;19998;-65
2022/05/13 03:05:36;;;;;;;;;;;;;;;;;;6182098;23;19900;-66
2022/05/13 03:08:01;;;;;;;;;;;;;;;;;;6154773;23;20247;-65
2022/05/13 03:10:28;;;;;;;;;;;;;;;;;;6182060;23;19931;-65
2022/05/13 03:12:53;;;;;;;;;;;;;;;;;;6183185;23;19983;-66
2022/05/13 03:15:19;;;;;;;;;;;;;;;;;;6182980;23;20285;-66
2022/05/13 03:17:45;;;;;;;;;;;;;;;;;;6182925;23;19904;-65
2022/05/13 03:20:11;;;;;;;;;;;;;;;;;;6183347;23;19904;-65
2022/05/13 03:22:38;;;;;;;;;;;;;;;;;;6183132;23;19900;-66
2022/05/13 03:25:04;;;;;;;;;;;;;;;;;;6183696;23;19974;-65
2022/05/13 03:27:31;;;;;;;;;;;;;;;;;;6183071;23;19900;-65
2022/05/13 03:29:57;;;;;;;;;;;;;;;;;;6156155;23;19900;-65
2022/05/13 03:32:23;;;;;;;;;;;;;;;;;;6183306;23;19991;-65
2022/05/13 03:34:49;;;;;;;;;;;;;;;;;;6183829;23;20382;-65
2022/05/13 03:37:15;;;;;;;;;;;;;;;;;;6182140;23;19900;-65
2022/05/13 03:39:41;;;;;;;;;;;;;;;;;;6182484;23;19900;-65
2022/05/13 03:42:07;;;;;;;;;;;;;;;;;;6183607;23;19907;-65
2022/05/13 03:44:34;;;;;;;;;;;;;;;;;;6183448;23;19908;-65
2022/05/13 03:47:00;;;;;;;;;;;;;;;;;;6182914;23;19907;-65
2022/05/13 03:49:26;;;;;;;;;;;;;;;;;;6183172;23;20230;-65
2022/05/13 03:54:44;;;;;;;;;;;;;;;;;;6151435;23;19900;-65
2022/05/13 03:57:10;;;;;;;;;;;;;;;;;;6125998;23;19908;-65
2022/05/13 03:59:37;;;;;;;;;;;;;;;;;;6150348;23;19901;-66
2022/05/13 04:02:02;;;;;;;;;;;;;;;;;;6124913;23;20156;-66
2022/05/13 04:04:29;;;;;;;;;;;;;;;;;;6125583;23;20331;-65
2022/05/13 04:09:39;;;;;;;;;;;;;;;;;;6150029;23;19951;-66
2022/05/13 04:17:34;;;;;;;;;;;;;;;;;;6148733;23;19928;-65
2022/05/13 04:20:00;;;;;;;;;;;;;;;;;;6149627;23;20334;-66
2022/05/13 04:22:26;;;;;;;;;;;;;;;;;;6150009;23;19904;-65
2022/05/13 04:24:52;;;;;;;;;;;;;;;;;;6149516;23;19908;-65
2022/05/13 04:27:18;;;;;;;;;;;;;;;;;;6125691;23;19995;-65
2022/05/13 04:29:44;;;;;;;;;;;;;;;;;;6125109;23;19901;-65
2022/05/13 04:32:10;;;;;;;;;;;;;;;;;;6147778;23;19907;-65
2022/05/13 04:34:36;;;;;;;;;;;;;;;;;;6157031;23;19912;-66
2022/05/13 04:37:02;;;;;;;;;;;;;;;;;;6183002;23;19958;-65
2022/05/13 04:39:28;;;;;;;;;;;;;;;;;;6182261;23;20227;-65
2022/05/13 04:44:38;;;;;;;;;;;;;;;;;;6183633;23;19981;-66
2022/05/13 04:48:15;;;;;;;;;;;;;;;;;;6183509;23;20311;-65
2022/05/13 04:49:50;;;;;;;;;;;;;;;;;;6183265;23;20019;-66
2022/05/13 04:52:16;;;;;;;;;;;;;;;;;;6186141;23;19940;-65
2022/05/13 04:54:42;;;;;;;;;;;;;;;;;;6160333;23;19911;-65
2022/05/13 04:57:07;;;;;;;;;;;;;;;;;;6186784;23;20307;-65
2022/05/13 04:59:33;;;;;;;;;;;;;;;;;;6185840;23;19900;-65
2022/05/13 05:01:59;;;;;;;;;;;;;;;;;;6184322;23;20382;-65
2022/05/13 05:04:25;;;;;;;;;;;;;;;;;;6183563;23;19909;-65
2022/05/13 05:06:51;;;;;;;;;;;;;;;;;;6182522;23;20286;-65
2022/05/13 05:09:17;;;;;;;;;;;;;;;;;;6182234;23;19912;-65
2022/05/13 05:11:43;;;;;;;;;;;;;;;;;;6183058;23;20270;-65
2022/05/13 05:14:09;;;;;;;;;;;;;;;;;;6182829;23;19900;-65
2022/05/13 05:16:34;;;;;;;;;;;;;;;;;;6182583;23;20241;-65
2022/05/13 05:19:00;;;;;;;;;;;;;;;;;;6181230;23;19900;-65
2022/05/13 05:21:27;;;;;;;;;;;;;;;;;;6156550;23;19904;-66
2022/05/13 05:23:53;;;;;;;;;;;;;;;;;;6155932;23;19994;-65
2022/05/13 05:26:19;;;;;;;;;;;;;;;;;;6182187;23;20294;-65
2022/05/13 05:28:46;;;;;;;;;;;;;;;;;;6154931;23;19900;-65
2022/05/13 05:31:12;;;;;;;;;;;;;;;;;;6182432;23;19908;-65
2022/05/13 05:33:38;;;;;;;;;;;;;;;;;;6181123;23;19900;-65
2022/05/13 05:36:04;;;;;;;;;;;;;;;;;;6182555;23;19970;-65
2022/05/13 05:38:30;;;;;;;;;;;;;;;;;;6182666;23;19904;-65
2022/05/13 05:40:57;;;;;;;;;;;;;;;;;;6182777;23;19954;-65
2022/05/13 05:43:23;;;;;;;;;;;;;;;;;;6155982;23;19915;-65
2022/05/13 05:45:49;;;;;;;;;;;;;;;;;;6182309;23;20238;-65
2022/05/13 05:48:15;;;;;;;;;;;;;;;;;;6180610;23;19982;-65
2022/05/13 05:50:41;;;;;;;;;;;;;;;;;;6182322;23;19900;-65
2022/05/13 05:53:07;;;;;;;;;;;;;;;;;;6156146;23;19907;-65
2022/05/13 05:58:17;;;;;;;;;;;;;;;;;;6181996;23;20400;-65
2022/05/13 06:00:43;;;;;;;;;;;;;;;;;;6180705;23;19900;-65
2022/05/13 06:03:09;;;;;;;;;;;;;;;;;;6181220;23;19912;-65
2022/05/13 06:05:35;;;;;;;;;;;;;;;;;;6156125;23;20137;-65
2022/05/13 06:08:01;;;;;;;;;;;;;;;;;;6181572;23;19900;-66
2022/05/13 06:10:27;;;;;;;;;;;;;;;;;;6182266;23;19900;-65
2022/05/13 06:12:53;;;;;;;;;;;;;;;;;;6182140;23;20307;-65
2022/05/13 06:15:19;;;;;;;;;;;;;;;;;;6181669;23;19908;-65
2022/05/13 06:17:45;;;;;;;;;;;;;;;;;;6181858;23;19923;-65
2022/05/13 06:20:11;;;;;;;;;;;;;;;;;;6181326;23;19908;-65
2022/05/13 06:22:37;;;;;;;;;;;;;;;;;;6182053;23;19928;-66
2022/05/13 06:25:04;;;;;;;;;;;;;;;;;;6182290;23;19908;-65
2022/05/13 06:27:29;;;;;;;;;;;;;;;;;;6155948;23;19907;-65
2022/05/13 06:29:56;;;;;;;;;;;;;;;;;;6181265;23;19979;-65
2022/05/13 06:32:22;;;;;;;;;;;;;;;;;;6182125;23;19904;-65
2022/05/13 06:34:48;;;;;;;;;;;;;;;;;;6181241;23;19900;-65
2022/05/13 06:37:14;;;;;;;;;;;;;;;;;;6181048;23;19907;-65
2022/05/13 06:39:40;;;;;;;;;;;;;;;;;;6181214;23;19907;-65
2022/05/13 06:42:05;;;;;;;;;;;;;;;;;;6181817;23;19939;-65
2022/05/13 06:44:31;;;;;;;;;;;;;;;;;;6154693;23;20698;-65
2022/05/13 06:46:57;;;;;;;;;;;;;;;;;;6181853;23;19900;-65
2022/05/13 06:49:23;;;;;;;;;;;;;;;;;;6180730;23;20298;-65
2022/05/13 06:51:49;;;;;;;;;;;;;;;;;;6155017;23;19984;-65
2022/05/13 06:54:15;;;;;;;;;;;;;;;;;;6181991;23;19904;-65
2022/05/13 06:56:41;;;;;;;;;;;;;;;;;;6182463;23;20372;-66
2022/05/13 06:59:07;;;;;;;;;;;;;;;;;;6180847;23;19958;-65
2022/05/13 07:01:33;;;;;;;;;;;;;;;;;;6181935;23;19900;-65
2022/05/13 07:03:58;;;;;;;;;;;;;;;;;;6180961;23;19912;-65
2022/05/13 07:06:24;;;;;;;;;;;;;;;;;;6155547;23;19948;-65
2022/05/13 07:08:50;;;;;;;;;;;;;;;;;;6181162;23;20278;-65
2022/05/13 07:11:16;;;;;;;;;;;;;;;;;;6180829;23;20318;-65
2022/05/13 07:13:42;;;;;;;;;;;;;;;;;;6181601;23;20002;-65
2022/05/13 07:16:08;;;;;;;;;;;;;;;;;;6181352;23;20246;-65
2022/05/13 07:18:36;;;;;;;;;;;;;;;;;;6180383;23;19900;-65
2022/05/13 07:21:02;;;;;;;;;;;;;;;;;;6181718;23;19904;-65
2022/05/13 07:23:29;;;;;;;;;;;;;;;;;;6181939;23;19963;-65
2022/05/13 07:25:55;;;;;;;;;;;;;;;;;;6181781;23;19939;-65
2022/05/13 07:28:21;;;;;;;;;;;;;;;;;;6180738;23;19911;-65
2022/05/13 07:30:47;;;;;;;;;;;;;;;;;;6181494;23;19939;-65
2022/05/13 07:35:58;;;;;;;;;;;;;;;;;;6159475;23;19923;-68
2022/05/13 07:38:24;;;;;;;;;;;;;;;;;;6151279;23;19926;-68
2022/05/13 07:43:34;;;;;;;;;;;;;;;;;;6152208;23;19995;-68
2022/05/13 07:46:01;;;;;;;;;;;;;;;;;;6151829;23;19936;-68
2022/05/13 07:48:27;;;;;;;;;;;;;;;;;;6151806;23;19910;-68
2022/05/13 07:50:53;;;;;;;;;;;;;;;;;;6151642;23;19928;-68
2022/05/13 07:53:19;;;;;;;;;;;;;;;;;;6152184;23;19939;-68
2022/05/13 07:55:45;;;;;;;;;;;;;;;;;;6152458;23;19901;-68
2022/05/13 07:58:11;;;;;;;;;;;;;;;;;;6151273;23;19992;-68
2022/05/13 08:00:38;;;;;;;;;;;;;;;;;;6153558;23;19900;-68
2022/05/13 08:03:04;;;;;;;;;;;;;;;;;;6154575;23;19991;-68
2022/05/13 08:05:30;;;;;;;;;;;;;;;;;;6153707;23;19953;-68
2022/05/13 08:07:55;;;;;;;;;;;;;;;;;;6153189;23;19907;-68
2022/05/13 08:10:21;;;;;;;;;;;;;;;;;;6153644;23;19947;-68
2022/05/13 08:12:47;;;;;;;;;;;;;;;;;;6153348;23;20311;-68
2022/05/13 08:15:13;;;;;;;;;;;;;;;;;;6153248;23;19900;-68
2022/05/13 08:17:39;;;;;;;;;;;;;;;;;;6153515;23;20208;-68
2022/05/13 08:20:05;;;;;;;;;;;;;;;;;;6152135;23;20206;-68
2022/05/13 08:22:31;;;;;;;;;;;;;;;;;;6154259;23;19904;-68
2022/05/13 08:24:57;;;;;;;;;;;;;;;;;;6153352;23;19909;-68
2022/05/13 08:27:23;;;;;;;;;;;;;;;;;;6152815;23;19900;-68
2022/05/13 08:29:49;;;;;;;;;;;;;;;;;;6152010;23;19907;-68
2022/05/13 08:32:15;;;;;;;;;;;;;;;;;;6153283;23;19901;-68
2022/05/13 08:34:40;;;;;;;;;;;;;;;;;;6159434;23;19912;-68
2022/05/13 08:37:06;;;;;;;;;;;;;;;;;;6182308;23;20235;-68
2022/05/13 08:39:32;;;;;;;;;;;;;;;;;;6156253;23;19900;-68
2022/05/13 08:41:58;;;;;;;;;;;;;;;;;;6182547;23;20279;-68
2022/05/13 08:44:25;;;;;;;;;;;;;;;;;;6183446;23;20393;-68
2022/05/13 08:46:51;;;;;;;;;;;;;;;;;;6182568;23;19931;-68
2022/05/13 08:49:16;;;;;;;;;;;;;;;;;;6182933;23;20316;-68
2022/05/13 08:51:42;;;;;;;;;;;;;;;;;;6182819;23;19904;-68
2022/05/13 08:56:59;;;;;;;;;;;;;;;;;;6187061;23;20289;-68
2022/05/13 08:59:25;;;;;;;;;;;;;;;;;;6158528;23;20262;-68
2022/05/13 09:01:51;;;;;;;;;;;;;;;;;;6156109;23;19908;-68
2022/05/13 09:04:17;;;;;;;;;;;;;;;;;;6155962;23;19915;-68
2022/05/13 09:06:43;;;;;;;;;;;;;;;;;;6181821;23;19907;-68
2022/05/13 09:09:09;;;;;;;;;;;;;;;;;;6181181;23;19900;-68
2022/05/13 09:11:35;;;;;;;;;;;;;;;;;;6156224;23;19935;-68
2022/05/13 09:14:00;;;;;;;;;;;;;;;;;;6182732;23;20327;-68
2022/05/13 09:16:26;;;;;;;;;;;;;;;;;;6183474;23;19907;-68
2022/05/13 09:18:52;;;;;;;;;;;;;;;;;;6182269;23;20018;-68
2022/05/13 09:21:19;;;;;;;;;;;;;;;;;;6182216;23;19900;-68
2022/05/13 09:23:45;;;;;;;;;;;;;;;;;;6181944;23;19908;-68
2022/05/13 09:26:13;;;;;;;;;;;;;;;;;;6183158;23;19964;-68
2022/05/13 09:28:39;;;;;;;;;;;;;;;;;;6180969;23;19908;-68
2022/05/13 09:31:05;;;;;;;;;;;;;;;;;;6182467;23;19900;-68
2022/05/13 09:33:30;;;;;;;;;;;;;;;;;;6182701;23;20199;-68
2022/05/13 09:35:56;;;;;;;;;;;;;;;;;;6181090;23;19912;-68
2022/05/13 09:38:24;;;;;;;;;;;;;;;;;;6154775;23;19943;-68
2022/05/13 09:40:49;;;;;;;;;;;;;;;;;;6182651;23;19983;-68
2022/05/13 09:43:15;;;;;;;;;;;;;;;;;;6182487;23;19935;-68
2022/05/13 09:45:41;;;;;;;;;;;;;;;;;;6182728;23;19915;-68
2022/05/13 09:48:07;;;;;;;;;;;;;;;;;;6181568;23;19904;-68
2022/05/13 09:50:33;;;;;;;;;;;;;;;;;;6181944;23;19907;-68
2022/05/13 09:52:59;;;;;;;;;;;;;;;;;;6182671;23;19908;-68
2022/05/13 09:55:25;;;;;;;;;;;;;;;;;;6182452;23;20093;-68
2022/05/13 09:57:51;;;;;;;;;;;;;;;;;;6182361;23;20397;-68
2022/05/13 10:00:18;;;;;;;;;;;;;;;;;;6182260;23;19922;-68
2022/05/13 10:02:44;;;;;;;;;;;;;;;;;;6155721;23;19984;-68
2022/05/13 10:05:10;;;;;;;;;;;;;;;;;;6154674;23;19940;-68
2022/05/13 10:07:36;;;;;;;;;;;;;;;;;;6181523;23;19911;-70
2022/05/13 10:15:31;;;;;;;;;;;;;;;;;;6182195;23;19911;-68
2022/05/13 10:17:57;;;;;;;;;;;;;;;;;;6181681;23;20035;-68
2022/05/13 10:20:23;;;;;;;;;;;;;;;;;;6156735;23;19951;-68
2022/05/13 10:22:50;;;;;;;;;;;;;;;;;;6181461;23;19983;-68
2022/05/13 10:25:16;;;;;;;;;;;;;;;;;;6155930;23;19935;-68
2022/05/13 10:27:44;;;;;;;;;;;;;;;;;;6182276;23;19955;-67
2022/05/13 10:30:09;;;;;;;;;;;;;;;;;;6181329;23;19900;-68
2022/05/13 10:32:35;;;;;;;;;;;;;;;;;;6182061;23;20402;-68
2022/05/13 10:35:01;;;;;;;;;;;;;;;;;;6181995;23;19938;-68
2022/05/13 10:37:27;;;;;;;;;;;;;;;;;;6181728;23;20239;-68
2022/05/13 10:39:53;;;;;;;;;;;;;;;;;;6154660;23;19900;-67
2022/05/13 10:42:19;;;;;;;;;;;;;;;;;;6181888;23;19904;-68
2022/05/13 10:44:46;;;;;;;;;;;;;;;;;;6181432;23;19954;-68
2022/05/13 10:47:11;;;;;;;;;;;;;;;;;;6181732;23;20328;-68
2022/05/13 10:49:37;;;;;;;;;;;;;;;;;;6154837;23;19947;-68
2022/05/13 10:52:03;;;;;;;;;;;;;;;;;;6181526;23;20200;-68
2022/05/13 10:54:29;;;;;;;;;;;;;;;;;;6180848;23;19907;-68
2022/05/13 10:56:55;;;;;;;;;;;;;;;;;;6182122;23;19900;-67
2022/05/13 10:59:21;;;;;;;;;;;;;;;;;;6155187;23;19904;-67
2022/05/13 11:01:48;;;;;;;;;;;;;;;;;;6181769;23;20122;-68
2022/05/13 11:04:15;;;;;;;;;;;;;;;;;;6182471;23;20059;-68
2022/05/13 11:06:42;;;;;;;;;;;;;;;;;;6181231;23;19904;-68
2022/05/13 11:09:08;;;;;;;;;;;;;;;;;;6181962;23;19900;-68
2022/05/13 11:11:34;;;;;;;;;;;;;;;;;;6181913;23;19901;-67
2022/05/13 11:14:00;;;;;;;;;;;;;;;;;;6154947;23;19907;-68
2022/05/13 11:16:25;;;;;;;;;;;;;;;;;;6181296;23;19900;-67
2022/05/13 11:18:51;;;;;;;;;;;;;;;;;;6154801;23;20277;-67
2022/05/13 11:21:17;;;;;;;;;;;;;;;;;;6181545;23;19908;-68
2022/05/13 11:23:43;;;;;;;;;;;;;;;;;;6182152;23;20349;-67
2022/05/13 11:26:09;;;;;;;;;;;;;;;;;;6182379;23;19911;-68
2022/05/13 11:28:35;;;;;;;;;;;;;;;;;;6181384;23;20315;-68
2022/05/13 11:31:02;;;;;;;;;;;;;;;;;;6154568;23;19975;-67
2022/05/13 11:33:28;;;;;;;;;;;;;;;;;;6182931;23;19900;-67
2022/05/13 11:35:53;;;;;;;;;;;;;;;;;;6183530;23;19915;-68
2022/05/13 11:38:20;;;;;;;;;;;;;;;;;;6182669;23;20208;-68
2022/05/13 11:40:46;;;;;;;;;;;;;;;;;;6183519;23;19907;-68
2022/05/13 11:43:21;;;;;;;;;;;;;;;;;;6183474;23;19915;-68
2022/05/13 11:45:47;;;;;;;;;;;;;;;;;;6183904;23;19974;-68
2022/05/13 11:48:13;;;;;;;;;;;;;;;;;;6183480;23;19966;-68
2022/05/13 11:53:30;;;;;;;;;;;;;;;;;;6183760;23;19906;-68
2022/05/13 11:55:59;;;;;;;;;;;;;;;;;;6156612;23;20271;-68
2022/05/13 11:58:25;;;;;;;;;;;;;;;;;;6156842;23;19950;-68
2022/05/13 12:00:51;;;;;;;;;;;;;;;;;;6183515;23;20100;-68
2022/05/13 12:03:16;;;;;;;;;;;;;;;;;;6157237;23;19914;-68
2022/05/13 12:05:42;;;;;;;;;;;;;;;;;;6183630;23;19908;-68
2022/05/13 12:08:09;;;;;;;;;;;;;;;;;;6155368;23;19978;-68
2022/05/13 12:10:35;;;;;;;;;;;;;;;;;;6157075;23;19900;-68
2022/05/13 12:13:01;;;;;;;;;;;;;;;;;;6183211;23;20031;-70
2022/05/13 12:15:26;;;;;;;;;;;;;;;;;;6183842;23;20027;-71
2022/05/13 12:17:52;;;;;;;;;;;;;;;;;;6182507;23;19910;-71
2022/05/13 12:20:18;;;;;;;;;;;;;;;;;;6183782;23;19900;-71
2022/05/13 12:22:44;;;;;;;;;;;;;;;;;;6181793;23;19904;-71
2022/05/13 12:25:10;;;;;;;;;;;;;;;;;;6183179;23;19908;-73
2022/05/13 12:27:36;;;;;;;;;;;;;;;;;;6183433;23;19906;-71
2022/05/13 12:30:02;;;;;;;;;;;;;;;;;;6182567;23;19908;-71
2022/05/13 12:32:28;;;;;;;;;;;;;;;;;;6182932;23;19900;-70
2022/05/13 12:37:39;;;;;;;;;;;;;;;;;;6182613;23;19953;-71
2022/05/13 12:40:05;;;;;;;;;;;;;;;;;;6182514;23;20211;-71
2022/05/13 12:42:31;;;;;;;;;;;;;;;;;;6183368;23;20291;-70
2022/05/13 12:44:57;;;;;;;;;;;;;;;;;;6182439;23;19914;-71
2022/05/13 12:47:23;;;;;;;;;;;;;;;;;;6183178;23;19927;-70
2022/05/13 12:49:49;;;;;;;;;;;;;;;;;;6182199;23;19900;-71
2022/05/13 12:52:15;;;;;;;;;;;;;;;;;;6182213;23;19900;-70
2022/05/13 12:54:41;;;;;;;;;;;;;;;;;;6182815;23;19987;-71
2022/05/13 12:57:06;;;;;;;;;;;;;;;;;;6182721;23;19923;-70
2022/05/13 12:59:33;;;;;;;;;;;;;;;;;;6181500;23;19900;-70
2022/05/13 13:01:58;;;;;;;;;;;;;;;;;;6182479;23;20221;-70
2022/05/13 13:04:24;;;;;;;;;;;;;;;;;;6156197;23;19986;-71
2022/05/13 13:06:50;;;;;;;;;;;;;;;;;;6181816;23;19907;-71
2022/05/13 13:09:16;;;;;;;;;;;;;;;;;;6182296;23;19901;-70
2022/05/13 13:11:42;;;;;;;;;;;;;;;;;;6183002;23;19908;-70
2022/05/13 13:14:08;;;;;;;;;;;;;;;;;;6182649;23;19908;-70
2022/05/13 13:16:35;;;;;;;;;;;;;;;;;;6182992;23;20026;-70
2022/05/13 13:19:01;;;;;;;;;;;;;;;;;;6182485;23;20277;-70
2022/05/13 13:21:27;;;;;;;;;;;;;;;;;;6182336;23;20326;-71
2022/05/13 13:23:53;;;;;;;;;;;;;;;;;;6156051;23;19908;-70
2022/05/13 13:26:19;;;;;;;;;;;;;;;;;;6182877;23;19934;-70
2022/05/13 13:28:45;;;;;;;;;;;;;;;;;;6182477;23;19948;-71
2022/05/13 13:31:11;;;;;;;;;;;;;;;;;;6181362;23;19947;-70
2022/05/13 13:33:36;;;;;;;;;;;;;;;;;;6182531;23;19900;-72
2022/05/13 13:36:02;;;;;;;;;;;;;;;;;;6181520;23;19915;-70
2022/05/13 13:38:28;;;;;;;;;;;;;;;;;;6181995;23;19966;-70
2022/05/13 13:40:54;;;;;;;;;;;;;;;;;;6182837;23;19907;-70
2022/05/13 13:43:20;;;;;;;;;;;;;;;;;;6182417;23;19995;-70
2022/05/13 13:45:51;;;;;;;;;;;;;;;;;;6184557;23;19911;-71
2022/05/13 13:48:17;;;;;;;;;;;;;;;;;;6184589;23;20341;-70
2022/05/13 13:50:45;;;;;;;;;;;;;;;;;;6182788;23;20125;-70
2022/05/13 13:53:11;;;;;;;;;;;;;;;;;;6184266;23;19901;-70
2022/05/13 13:55:39;;;;;;;;;;;;;;;;;;6158329;23;20299;-70
2022/05/13 13:58:05;;;;;;;;;;;;;;;;;;6182580;23;20484;-70
2022/05/13 14:00:33;;;;;;;;;;;;;;;;;;6156481;23;19947;-70
2022/05/13 14:02:59;;;;;;;;;;;;;;;;;;6182748;23;19900;-71
2022/05/13 14:05:25;;;;;;;;;;;;;;;;;;6182518;23;20212;-70
2022/05/13 14:10:35;;;;;;;;;;;;;;;;;;6174421;23;19994;-65
2022/05/13 14:13:01;;;;;;;;;;;;;;;;;;6152314;23;19901;-63
2022/05/13 14:15:27;;;;;;;;;;;;;;;;;;6152470;23;19979;-63
2022/05/13 14:17:53;;;;;;;;;;;;;;;;;;6151738;23;19932;-63
2022/05/13 14:20:19;;;;;;;;;;;;;;;;;;6151500;23;19909;-64
2022/05/13 14:22:45;;;;;;;;;;;;;;;;;;6152425;23;19904;-64
2022/05/13 14:25:11;;;;;;;;;;;;;;;;;;6152041;23;19912;-64
2022/05/13 14:27:38;;;;;;;;;;;;;;;;;;6153002;23;20434;-65
2022/05/13 14:30:04;;;;;;;;;;;;;;;;;;6150391;23;19924;-64
2022/05/13 14:32:29;;;;;;;;;;;;;;;;;;6152194;23;19976;-63
2022/05/13 14:34:56;;;;;;;;;;;;;;;;;;6152258;23;20302;-63
2022/05/13 14:37:22;;;;;;;;;;;;;;;;;;6151962;23;19932;-63
2022/05/13 14:39:51;;;;;;;;;;;;;;;;;;6151076;23;19912;-63
2022/05/13 14:42:17;;;;;;;;;;;;;;;;;;6151866;23;19924;-63
2022/05/13 14:44:43;;;;;;;;;;;;;;;;;;6152476;23;19940;-64
2022/05/13 14:47:09;;;;;;;;;;;;;;;;;;6152284;23;19908;-63
2022/05/13 14:49:35;;;;;;;;;;;;;;;;;;6151320;23;19982;-63
2022/05/13 14:52:01;;;;;;;;;;;;;;;;;;6151912;23;19908;-64
2022/05/13 14:54:27;;;;;;;;;;;;;;;;;;6152511;23;19955;-64
2022/05/13 14:56:54;;;;;;;;;;;;;;;;;;6152313;23;19988;-64
2022/05/13 14:59:21;;;;;;;;;;;;;;;;;;6152057;23;20238;-66
2022/05/13 15:01:47;;;;;;;;;;;;;;;;;;6152258;23;19907;-66
2022/05/13 15:04:12;;;;;;;;;;;;;;;;;;6152301;23;19908;-66
2022/05/13 15:06:38;;;;;;;;;;;;;;;;;;6152741;23;20317;-67
2022/05/13 15:09:04;;;;;;;;;;;;;;;;;;6153179;23;19907;-63
2022/05/13 15:11:30;;;;;;;;;;;;;;;;;;6174860;23;19914;-63
2022/05/13 15:13:58;;;;;;;;;;;;;;;;;;6184001;23;19904;-64
2022/05/13 15:16:24;;;;;;;;;;;;;;;;;;6183227;23;20393;-63
2022/05/13 15:18:50;;;;;;;;;;;;;;;;;;6182789;23;19935;-64
2022/05/13 15:21:16;;;;;;;;;;;;;;;;;;6183899;23;19900;-64
2022/05/13 15:23:42;;;;;;;;;;;;;;;;;;6183919;23;20523;-64
2022/05/13 15:26:08;;;;;;;;;;;;;;;;;;6183085;23;19979;-64
2022/05/13 15:28:34;;;;;;;;;;;;;;;;;;6184038;23;19927;-64
2022/05/13 15:31:00;;;;;;;;;;;;;;;;;;6184058;23;19947;-64
2022/05/13 15:33:26;;;;;;;;;;;;;;;;;;6183353;23;20322;-65
2022/05/13 15:35:52;;;;;;;;;;;;;;;;;;6183837;23;19979;-64
2022/05/13 15:38:19;;;;;;;;;;;;;;;;;;6183639;23;19970;-64
2022/05/13 15:40:45;;;;;;;;;;;;;;;;;;6156790;23;19900;-64
2022/05/13 15:43:11;;;;;;;;;;;;;;;;;;6184030;23;20286;-64
2022/05/13 15:45:37;;;;;;;;;;;;;;;;;;6183918;23;19912;-65
2022/05/13 15:48:03;;;;;;;;;;;;;;;;;;6182901;23;19900;-65
2022/05/13 15:53:14;;;;;;;;;;;;;;;;;;6184428;23;19911;-64
2022/05/13 15:55:40;;;;;;;;;;;;;;;;;;6156309;23;19928;-65
2022/05/13 15:58:06;;;;;;;;;;;;;;;;;;6183805;23;19915;-64
2022/05/13 16:00:32;;;;;;;;;;;;;;;;;;6183140;23;20348;-64
2022/05/13 16:02:58;;;;;;;;;;;;;;;;;;6183377;23;19909;-64
2022/05/13 16:05:24;;;;;;;;;;;;;;;;;;6183265;23;19943;-64
2022/05/13 16:07:50;;;;;;;;;;;;;;;;;;6183305;23;20231;-64
2022/05/13 16:10:16;;;;;;;;;;;;;;;;;;6182638;23;19939;-65
2022/05/13 16:12:42;;;;;;;;;;;;;;;;;;6157717;23;19939;-64
2022/05/13 16:15:08;;;;;;;;;;;;;;;;;;6183867;23;19904;-65
2022/05/13 16:17:34;;;;;;;;;;;;;;;;;;6157211;23;19972;-64
2022/05/13 16:20:00;;;;;;;;;;;;;;;;;;6182095;23;19904;-64
2022/05/13 16:22:26;;;;;;;;;;;;;;;;;;6184237;23;20343;-64
2022/05/13 16:24:52;;;;;;;;;;;;;;;;;;6182452;23;19955;-65
2022/05/13 16:27:17;;;;;;;;;;;;;;;;;;6156432;23;20159;-65
2022/05/13 16:29:44;;;;;;;;;;;;;;;;;;6182788;23;19927;-64
2022/05/13 16:32:09;;;;;;;;;;;;;;;;;;6184928;23;19900;-64
2022/05/13 16:40:06;;;;;;;;;;;;;;;;;;6149222;23;19907;-64
2022/05/13 16:42:32;;;;;;;;;;;;;;;;;;6150217;23;19901;-64
2022/05/13 16:44:58;;;;;;;;;;;;;;;;;;6150287;23;19939;-65
2022/05/13 16:47:24;;;;;;;;;;;;;;;;;;6150119;23;19908;-64
2022/05/13 16:49:51;;;;;;;;;;;;;;;;;;6149166;23;20376;-64
2022/05/13 16:52:18;;;;;;;;;;;;;;;;;;6149709;23;19932;-64
2022/05/13 16:54:44;;;;;;;;;;;;;;;;;;6148792;23;19904;-65
2022/05/13 16:57:10;;;;;;;;;;;;;;;;;;6124068;23;19947;-65
2022/05/13 16:59:35;;;;;;;;;;;;;;;;;;6149680;23;19904;-65
2022/05/13 17:02:02;;;;;;;;;;;;;;;;;;6148704;23;20418;-65
2022/05/13 17:04:27;;;;;;;;;;;;;;;;;;6149554;23;20128;-65
2022/05/13 17:06:53;;;;;;;;;;;;;;;;;;6124552;23;19904;-65
2022/05/13 17:17:33;;;;;;;;;;;;;;;;;;6182191;23;19958;-65
2022/05/13 17:19:59;;;;;;;;;;;;;;;;;;6181422;23;20319;-65
2022/05/13 17:22:25;;;;;;;;;;;;;;;;;;6182406;23;19901;-65
2022/05/13 17:24:51;;;;;;;;;;;;;;;;;;6182496;23;19912;-65
2022/05/13 17:27:17;;;;;;;;;;;;;;;;;;6181978;23;19991;-65
2022/05/13 17:29:44;;;;;;;;;;;;;;;;;;6182325;23;19900;-65
2022/05/13 17:32:10;;;;;;;;;;;;;;;;;;6181624;23;20211;-65
2022/05/13 17:34:36;;;;;;;;;;;;;;;;;;6181977;23;19911;-65
2022/05/13 17:37:03;;;;;;;;;;;;;;;;;;6182441;23;19907;-65
2022/05/13 17:39:29;;;;;;;;;;;;;;;;;;6182278;23;20241;-65